Time;durP1;ratioP1;P1;durP2;ratioP2;P2;SDS_P1;SDS_P2;PMS_P1;PMS_P2;Temp;Humidity;BMP_temperature;BMP_pressure;BME280_temperature;BME280_humidity;BME280_pressure;Samples;Min_cycle;Max_cycle;Signal;HPM_P1;HPM_P2
2023/08/01 00:03:03;;;;;;;2.35;1.15;;;16.60;99.90;;;;;;7371625;32;20694;-55
2023/08/01 00:07:04;;;;;;;3.22;1.02;;;16.60;99.90;;;;;;7374801;32;20122;-56
2023/08/01 00:11:07;;;;;;;2.65;1.40;;;16.60;99.90;;;;;;7372880;32;20193;-56
2023/08/01 00:15:09;;;;;;;2.03;1.20;;;16.60;99.90;;;;;;7360894;32;20171;-55
2023/08/01 00:19:12;;;;;;;2.33;1.00;;;16.60;99.90;;;;;;7376651;32;20557;-56
2023/08/01 00:23:14;;;;;;;1.73;0.90;;;16.50;99.90;;;;;;7369913;32;20309;-55
2023/08/01 00:27:15;;;;;;;1.40;0.40;;;16.60;99.90;;;;;;7372150;32;20103;-56
2023/08/01 00:31:17;;;;;;;1.27;0.30;;;16.60;99.90;;;;;;7378649;32;20699;-55
2023/08/01 00:35:19;;;;;;;0.65;0.30;;;16.50;99.90;;;;;;7370906;32;20099;-55
2023/08/01 00:39:20;;;;;;;2.78;0.32;;;16.40;99.90;;;;;;7368254;32;20103;-55
2023/08/01 00:43:22;;;;;;;0.30;0.20;;;16.50;99.90;;;;;;7376889;32;20115;-56
2023/08/01 00:47:24;;;;;;;0.37;0.25;;;16.50;99.90;;;;;;7375740;32;20099;-55
2023/08/01 00:51:27;;;;;;;2.45;0.25;;;16.50;99.90;;;;;;7378854;32;20137;-55
2023/08/01 00:55:31;;;;;;;0.22;0.10;;;16.50;99.90;;;;;;7370996;32;20470;-56
2023/08/01 00:59:34;;;;;;;1.75;0.30;;;16.50;99.90;;;;;;7376836;32;20202;-56
2023/08/01 01:03:37;;;;;;;1.50;0.40;;;16.40;99.90;;;;;;7373461;32;20114;-55
2023/08/01 01:07:39;;;;;;;0.70;0.40;;;16.40;99.90;;;;;;7378866;32;20482;-55
2023/08/01 01:11:41;;;;;;;2.28;0.28;;;16.40;99.90;;;;;;7374877;32;20114;-56
2023/08/01 01:15:43;;;;;;;0.40;0.30;;;16.30;99.90;;;;;;7378809;32;20194;-55
2023/08/01 01:19:45;;;;;;;0.75;0.40;;;16.40;99.90;;;;;;7378280;32;20125;-56
2023/08/01 01:23:48;;;;;;;2.08;0.40;;;16.40;99.90;;;;;;7365925;32;20553;-56
2023/08/01 01:27:52;;;;;;;1.42;0.30;;;16.40;99.90;;;;;;7371143;32;20159;-55
2023/08/01 01:31:55;;;;;;;0.50;0.32;;;16.40;99.90;;;;;;7377333;32;20182;-56
2023/08/01 01:35:57;;;;;;;0.80;0.52;;;16.40;99.90;;;;;;7378348;32;20269;-56
2023/08/01 01:39:58;;;;;;;1.87;0.50;;;16.40;99.90;;;;;;7378750;32;20134;-56
2023/08/01 01:44:00;;;;;;;0.80;0.75;;;16.40;99.90;;;;;;7380467;32;20099;-55
2023/08/01 01:48:02;;;;;;;1.65;0.90;;;16.40;99.90;;;;;;7376475;32;20100;-56
2023/08/01 01:52:04;;;;;;;1.08;0.90;;;16.50;99.90;;;;;;7383614;32;20121;-56
2023/08/01 01:56:06;;;;;;;1.85;0.82;;;16.50;99.90;;;;;;7370530;32;20255;-56
2023/08/01 02:00:11;;;;;;;3.03;0.80;;;16.40;99.90;;;;;;7369259;32;20238;-57
2023/08/01 02:04:13;;;;;;;0.93;0.70;;;16.50;99.90;;;;;;7368054;32;20618;-56
2023/08/01 02:08:15;;;;;;;1.20;0.80;;;16.60;99.90;;;;;;7376459;32;20271;-56
2023/08/01 02:12:17;;;;;;;1.87;1.40;;;16.50;99.90;;;;;;7373414;32;20095;-55
2023/08/01 02:16:18;;;;;;;4.95;1.60;;;16.60;99.90;;;;;;7367448;32;20513;-55
2023/08/01 02:20:20;;;;;;;1.80;1.25;;;16.50;99.90;;;;;;7381978;32;20472;-57
2023/08/01 02:24:22;;;;;;;3.10;2.40;;;16.50;99.90;;;;;;7377270;32;20182;-56
2023/08/01 02:28:23;;;;;;;3.83;3.53;;;16.40;99.90;;;;;;7372853;32;20276;-55
2023/08/01 02:32:25;;;;;;;4.72;4.18;;;16.30;99.90;;;;;;7364955;32;20137;-56
2023/08/01 02:36:28;;;;;;;6.60;5.10;;;16.30;99.90;;;;;;7360880;32;20174;-55
2023/08/01 02:40:30;;;;;;;8.40;4.78;;;16.10;99.90;;;;;;7363737;32;20193;-56
2023/08/01 02:44:32;;;;;;;5.30;4.78;;;16.10;99.90;;;;;;7361788;32;20153;-56
2023/08/01 02:48:35;;;;;;;5.93;5.30;;;16.00;99.90;;;;;;7366455;32;20279;-55
2023/08/01 02:52:37;;;;;;;7.57;5.57;;;16.00;99.90;;;;;;7368448;32;20138;-55
2023/08/01 02:56:41;;;;;;;8.57;6.25;;;15.90;99.90;;;;;;7364151;32;20233;-55
2023/08/01 03:00:43;;;;;;;7.12;6.35;;;15.90;99.90;;;;;;7365672;32;20272;-56
2023/08/01 03:04:45;;;;;;;7.62;6.87;;;15.80;99.90;;;;;;7361399;32;20568;-55
2023/08/01 03:08:48;;;;;;;12.70;8.65;;;15.70;99.90;;;;;;7370418;32;20103;-55
2023/08/01 03:12:49;;;;;;;12.65;8.65;;;15.70;99.90;;;;;;7373193;32;20132;-55
2023/08/01 03:16:51;;;;;;;10.05;9.13;;;15.70;99.90;;;;;;7380695;32;20150;-56
2023/08/01 03:20:53;;;;;;;11.60;9.95;;;15.60;99.90;;;;;;7374139;32;20614;-55
2023/08/01 03:24:55;;;;;;;15.65;11.35;;;15.70;99.90;;;;;;7379134;32;20137;-56
2023/08/01 03:28:56;;;;;;;18.75;11.65;;;15.60;99.90;;;;;;7380649;32;20098;-55
2023/08/01 03:32:59;;;;;;;14.73;12.20;;;15.40;99.90;;;;;;7371954;32;20164;-55
2023/08/01 03:37:01;;;;;;;17.95;13.07;;;15.40;99.90;;;;;;7365350;32;20189;-55
2023/08/01 03:41:03;;;;;;;17.05;12.23;;;15.30;99.90;;;;;;7366575;32;20587;-55
2023/08/01 03:45:06;;;;;;;25.73;13.00;;;15.20;99.90;;;;;;7367718;32;20098;-55
2023/08/01 03:49:09;;;;;;;23.83;12.88;;;15.20;99.90;;;;;;7368047;32;20169;-55
2023/08/01 03:53:11;;;;;;;19.75;13.32;;;15.10;99.90;;;;;;7376642;32;20121;-56
2023/08/01 03:57:13;;;;;;;19.62;12.50;;;15.10;99.90;;;;;;7379958;32;20103;-55
2023/08/01 04:01:14;;;;;;;16.65;13.30;;;15.00;99.90;;;;;;7378014;32;20154;-55
2023/08/01 04:05:17;;;;;;;16.00;12.20;;;15.00;99.90;;;;;;7374382;32;20538;-55
2023/08/01 04:09:19;;;;;;;15.45;12.68;;;15.00;99.90;;;;;;7374525;32;20198;-55
2023/08/01 04:13:21;;;;;;;25.48;13.13;;;15.00;99.90;;;;;;7368349;32;20149;-55
2023/08/01 04:17:22;;;;;;;19.80;12.35;;;15.00;99.90;;;;;;7364272;32;20531;-55
2023/08/01 04:21:24;;;;;;;21.67;12.40;;;14.90;99.90;;;;;;7364352;32;20115;-55
2023/08/01 04:25:27;;;;;;;21.23;13.38;;;14.90;99.90;;;;;;7363526;32;20161;-55
2023/08/01 04:29:29;;;;;;;21.95;14.50;;;15.00;99.90;;;;;;7358256;32;20131;-55
2023/08/01 04:33:30;;;;;;;24.10;14.85;;;15.00;99.90;;;;;;7375160;32;20493;-55
2023/08/01 04:37:32;;;;;;;24.00;15.02;;;15.00;99.90;;;;;;7365502;32;20257;-56
2023/08/01 04:41:34;;;;;;;22.92;16.35;;;15.00;99.90;;;;;;7376593;32;20650;-55
2023/08/01 04:45:36;;;;;;;22.08;16.80;;;15.00;99.90;;;;;;7362656;32;20126;-55
2023/08/01 04:49:38;;;;;;;23.62;17.23;;;15.00;99.90;;;;;;7374126;32;20159;-56
2023/08/01 04:53:39;;;;;;;26.65;18.00;;;15.00;99.90;;;;;;7372913;32;20198;-57
2023/08/01 04:57:42;;;;;;;26.00;18.40;;;15.00;99.90;;;;;;7378326;32;20432;-57
2023/08/01 05:01:44;;;;;;;23.75;18.62;;;15.00;99.90;;;;;;7379376;32;20202;-57
2023/08/01 05:05:46;;;;;;;27.05;19.02;;;15.00;99.90;;;;;;7355525;32;20133;-56
2023/08/01 05:09:47;;;;;;;26.62;19.05;;;15.00;99.90;;;;;;7373746;32;20123;-57
2023/08/01 05:13:49;;;;;;;29.42;19.08;;;15.10;99.90;;;;;;7360529;32;20495;-57
2023/08/01 05:17:52;;;;;;;27.48;18.02;;;15.00;99.90;;;;;;7379731;32;20130;-57
2023/08/01 05:21:55;;;;;;;24.17;18.10;;;15.10;99.90;;;;;;7378316;32;20213;-57
2023/08/01 05:25:56;;;;;;;29.15;18.35;;;15.10;99.90;;;;;;7371855;32;20102;-57
2023/08/01 05:29:58;;;;;;;26.87;19.33;;;15.10;99.90;;;;;;7372888;32;20794;-56
2023/08/01 05:34:00;;;;;;;28.62;19.17;;;15.10;99.90;;;;;;7368393;32;20164;-56
2023/08/01 05:38:01;;;;;;;28.25;19.45;;;15.10;99.90;;;;;;7375772;32;20110;-57
2023/08/01 05:42:08;;;;;;;28.90;18.92;;;15.10;99.90;;;;;;7370556;32;20118;-57
2023/08/01 05:46:10;;;;;;;20.10;16.30;;;15.20;99.90;;;;;;7368113;32;20129;-57
2023/08/01 05:50:12;;;;;;;21.45;16.83;;;15.20;99.90;;;;;;7366218;32;20452;-57
2023/08/01 05:54:14;;;;;;;22.23;15.77;;;15.30;99.90;;;;;;7370393;32;20253;-56
2023/08/01 05:58:16;;;;;;;25.52;15.05;;;15.30;99.90;;;;;;7365360;32;20135;-57
2023/08/01 06:02:17;;;;;;;19.58;14.82;;;15.30;99.90;;;;;;7370070;32;20533;-56
2023/08/01 06:06:19;;;;;;;21.50;14.75;;;15.30;99.90;;;;;;7368429;32;20243;-56
2023/08/01 06:10:22;;;;;;;19.55;13.23;;;15.30;99.90;;;;;;7365513;32;20244;-57
2023/08/01 06:14:24;;;;;;;18.60;13.48;;;15.40;99.90;;;;;;7369759;32;20254;-57
2023/08/01 06:18:25;;;;;;;16.87;11.85;;;15.50;99.90;;;;;;7359187;32;20094;-57
2023/08/01 06:22:27;;;;;;;25.45;12.63;;;15.40;99.90;;;;;;7368664;32;20811;-57
2023/08/01 06:26:29;;;;;;;20.17;11.55;;;15.40;99.90;;;;;;7367454;32;20127;-56
2023/08/01 06:30:30;;;;;;;15.98;11.85;;;15.30;99.90;;;;;;7369310;32;20223;-56
2023/08/01 06:34:32;;;;;;;19.85;11.55;;;15.30;99.90;;;;;;7371285;32;20173;-56
2023/08/01 06:38:34;;;;;;;18.58;11.18;;;15.30;99.90;;;;;;7367376;32;20643;-56
2023/08/01 06:42:35;;;;;;;19.87;10.55;;;15.40;99.90;;;;;;7368424;32;20111;-57
2023/08/01 06:46:37;;;;;;;22.33;10.45;;;15.40;99.90;;;;;;7373006;32;20103;-56
2023/08/01 06:50:40;;;;;;;21.37;10.40;;;15.50;99.90;;;;;;7367415;32;20082;-56
2023/08/01 06:54:41;;;;;;;14.65;9.15;;;15.50;99.90;;;;;;7366062;32;20121;-57
2023/08/01 06:58:43;;;;;;;15.32;9.88;;;15.60;99.90;;;;;;7365379;32;20100;-56
2023/08/01 07:02:45;;;;;;;13.98;8.63;;;15.60;99.90;;;;;;7368199;32;20130;-57
2023/08/01 07:06:47;;;;;;;18.65;9.45;;;15.60;99.90;;;;;;7365348;32;20508;-57
2023/08/01 07:10:48;;;;;;;15.05;9.38;;;15.60;99.90;;;;;;7366236;32;20126;-56
2023/08/01 07:14:50;;;;;;;11.77;8.07;;;15.60;99.90;;;;;;7368255;32;20115;-57
2023/08/01 07:18:52;;;;;;;16.00;8.57;;;15.70;99.90;;;;;;7361137;32;20225;-56
2023/08/01 07:22:53;;;;;;;12.52;7.97;;;15.70;99.90;;;;;;7345909;32;20237;-56
2023/08/01 07:26:55;;;;;;;13.40;7.40;;;15.80;99.90;;;;;;7372602;32;20107;-56
2023/08/01 07:31:05;;;;;;;14.50;9.13;;;15.80;99.90;;;;;;7369527;32;20137;-56
2023/08/01 07:35:08;;;;;;;12.82;8.38;;;15.80;99.90;;;;;;7361305;32;20115;-57
2023/08/01 07:39:09;;;;;;;18.37;9.32;;;15.90;99.90;;;;;;7358724;32;20208;-58
2023/08/01 07:43:12;;;;;;;15.82;9.18;;;16.00;99.90;;;;;;7365809;32;20123;-58
2023/08/01 07:47:14;;;;;;;18.10;8.70;;;16.00;99.90;;;;;;7364450;32;20206;-58
2023/08/01 07:51:16;;;;;;;12.95;9.25;;;16.10;99.90;;;;;;7364641;32;20103;-58
2023/08/01 07:55:18;;;;;;;13.02;8.45;;;16.10;99.90;;;;;;7367407;32;20118;-58
2023/08/01 07:59:20;;;;;;;15.40;9.43;;;16.20;99.90;;;;;;7365831;32;20103;-56
2023/08/01 08:03:22;;;;;;;12.27;8.25;;;16.30;99.90;;;;;;7364291;32;20206;-59
2023/08/01 08:07:24;;;;;;;16.40;9.07;;;16.40;99.90;;;;;;7367858;32;20275;-58
2023/08/01 08:11:25;;;;;;;19.45;8.25;;;16.60;99.90;;;;;;7367753;32;20130;-58
2023/08/01 08:15:27;;;;;;;14.98;8.27;;;16.70;99.90;;;;;;7366576;32;20155;-57
2023/08/01 08:19:29;;;;;;;12.60;7.72;;;16.60;99.90;;;;;;7366198;32;20099;-57
2023/08/01 08:23:31;;;;;;;10.30;7.50;;;16.60;99.90;;;;;;7366198;32;20233;-58
2023/08/01 08:27:32;;;;;;;12.77;7.50;;;16.70;99.90;;;;;;7367360;32;20115;-57
2023/08/01 08:31:35;;;;;;;16.00;6.55;;;16.80;99.90;;;;;;7362311;32;20186;-58
2023/08/01 08:35:37;;;;;;;10.60;6.90;;;16.70;99.90;;;;;;7364836;32;20221;-58
2023/08/01 08:39:39;;;;;;;14.05;6.35;;;16.70;99.90;;;;;;7368902;32;20225;-55
2023/08/01 08:43:41;;;;;;;13.02;6.30;;;16.80;99.90;;;;;;7365849;32;20150;-56
2023/08/01 08:47:44;;;;;;;13.65;6.62;;;16.80;99.90;;;;;;7357400;32;20099;-57
2023/08/01 08:51:47;;;;;;;12.37;6.32;;;16.80;99.90;;;;;;7362821;32;20190;-57
2023/08/01 08:55:48;;;;;;;13.55;6.10;;;16.70;99.90;;;;;;7358335;32;20518;-56
2023/08/01 08:59:52;;;;;;;12.43;5.82;;;16.70;99.90;;;;;;7364635;32;20145;-57
2023/08/01 09:03:56;;;;;;;15.98;5.80;;;16.60;99.90;;;;;;7367784;32;20278;-57
2023/08/01 09:08:04;;;;;;;9.18;4.87;;;17.90;99.90;;;;;;7368036;32;20159;-57
2023/08/01 09:12:07;;;;;;;9.45;4.00;;;19.00;99.90;;;;;;7364529;32;20248;-59
2023/08/01 09:16:10;;;;;;;9.10;4.55;;;19.50;99.90;;;;;;7363094;32;22268;-57
2023/08/01 09:20:12;;;;;;;7.78;3.53;;;19.70;99.90;;;;;;7363316;32;20121;-58
2023/08/01 09:24:19;;;;;;;8.20;3.85;;;19.90;99.90;;;;;;7364638;32;20092;-59
2023/08/01 09:28:23;;;;;;;6.00;3.40;;;20.20;99.90;;;;;;7360802;32;20123;-58
2023/08/01 09:32:25;;;;;;;6.78;3.17;;;20.80;99.90;;;;;;7361226;32;20186;-57
2023/08/01 09:36:27;;;;;;;9.60;3.90;;;20.20;99.90;;;;;;7356978;32;20241;-56
2023/08/01 09:40:39;;;;;;;7.25;3.75;;;19.50;99.90;;;;;;7363968;32;20210;-58
2023/08/01 09:44:46;;;;;;;7.37;4.07;;;18.50;99.90;;;;;;7364390;32;20107;-57
2023/08/01 09:48:48;;;;;;;11.25;4.90;;;18.00;99.90;;;;;;7363823;32;20173;-57
2023/08/01 09:52:52;;;;;;;7.82;5.18;;;18.20;99.90;;;;;;7370694;32;20099;-57
2023/08/01 09:56:56;;;;;;;10.00;5.10;;;18.20;99.90;;;;;;7363567;32;20317;-58
2023/08/01 10:00:58;;;;;;;11.15;4.70;;;18.70;99.90;;;;;;7354984;32;20824;-57
2023/08/01 10:05:00;;;;;;;8.20;4.03;;;18.80;99.90;;;;;;7368853;32;20152;-57
2023/08/01 10:09:02;;;;;;;11.38;5.40;;;18.40;99.90;;;;;;7364383;32;20797;-57
2023/08/01 10:13:05;;;;;;;9.65;5.45;;;18.30;99.90;;;;;;7373291;32;20272;-57
2023/08/01 10:17:09;;;;;;;9.65;4.50;;;18.20;99.90;;;;;;7364420;32;20168;-57
2023/08/01 10:21:16;;;;;;;6.22;4.32;;;18.10;99.90;;;;;;7368445;32;20129;-57
2023/08/01 10:25:19;;;;;;;6.60;4.20;;;18.20;99.90;;;;;;7373650;32;20530;-57
2023/08/01 10:29:21;;;;;;;4.90;3.80;;;18.20;99.90;;;;;;7370570;32;20225;-57
2023/08/01 10:33:33;;;;;;;10.18;4.00;;;18.30;99.90;;;;;;7365566;32;20657;-57
2023/08/01 10:37:47;;;;;;;5.25;3.70;;;18.40;99.90;;;;;;7366419;32;20319;-57
2023/08/01 10:42:00;;;;;;;7.78;3.85;;;18.90;99.90;;;;;;7366585;32;20272;-57
2023/08/01 10:46:05;;;;;;;12.60;4.07;;;18.90;99.90;;;;;;7366213;32;20118;-57
2023/08/01 10:50:14;;;;;;;6.40;3.40;;;18.60;99.90;;;;;;7363920;32;20172;-57
2023/08/01 10:54:25;;;;;;;6.78;4.05;;;18.30;99.90;;;;;;7372821;32;20115;-58
2023/08/01 10:58:27;;;;;;;7.97;3.97;;;18.30;99.90;;;;;;7370987;32;20111;-58
2023/08/01 11:02:30;;;;;;;7.68;4.32;;;18.10;99.90;;;;;;7361570;32;20174;-57
2023/08/01 11:06:43;;;;;;;9.02;3.97;;;18.20;99.90;;;;;;7370449;32;20133;-57
2023/08/01 11:10:49;;;;;;;9.25;4.45;;;18.50;99.90;;;;;;7372140;32;20099;-57
2023/08/01 11:14:51;;;;;;;9.77;3.87;;;18.70;99.90;;;;;;7369604;32;20242;-57
2023/08/01 11:18:53;;;;;;;6.62;3.78;;;19.30;99.90;;;;;;7366541;32;20550;-57
2023/08/01 11:23:04;;;;;;;5.50;3.17;;;19.70;99.90;;;;;;7373162;32;20122;-57
2023/08/01 11:27:06;;;;;;;7.30;3.70;;;19.50;99.90;;;;;;7366952;32;20261;-57
2023/08/01 11:31:13;;;;;;;5.95;3.08;;;19.00;99.90;;;;;;7364390;32;20103;-56
2023/08/01 11:35:19;;;;;;;8.55;3.47;;;18.70;99.90;;;;;;7366475;32;20224;-57
2023/08/01 11:39:22;;;;;;;8.43;4.05;;;18.20;99.90;;;;;;7367874;32;20490;-57
2023/08/01 11:43:24;;;;;;;4.97;2.28;;;18.30;99.90;;;;;;7362671;32;20210;-58
2023/08/01 11:47:26;;;;;;;5.97;2.60;;;18.30;99.90;;;;;;7365400;32;20106;-57
2023/08/01 11:51:28;;;;;;;4.40;1.73;;;18.10;99.90;;;;;;7365006;32;20133;-57
2023/08/01 11:55:35;;;;;;;4.32;2.33;;;17.80;99.90;;;;;;7363638;32;20283;-58
2023/08/01 11:59:49;;;;;;;6.87;2.20;;;17.40;99.90;;;;;;7359709;32;20139;-57
2023/08/01 12:03:54;;;;;;;6.75;2.70;;;17.20;99.90;;;;;;7367424;32;20134;-56
2023/08/01 12:07:56;;;;;;;5.07;2.30;;;17.10;99.90;;;;;;7366795;32;20143;-56
2023/08/01 12:12:00;;;;;;;5.20;2.22;;;17.00;99.90;;;;;;7365489;32;20142;-57
2023/08/01 12:16:02;;;;;;;4.72;2.53;;;17.00;99.90;;;;;;7367234;32;20107;-58
2023/08/01 12:20:04;;;;;;;3.87;2.10;;;17.10;99.90;;;;;;7367807;32;20314;-58
2023/08/01 12:24:06;;;;;;;3.95;2.08;;;17.20;99.90;;;;;;7368628;32;20130;-56
2023/08/01 12:28:08;;;;;;;2.78;1.87;;;17.20;99.90;;;;;;7360813;32;20504;-57
2023/08/01 12:32:10;;;;;;;5.15;2.05;;;17.20;99.90;;;;;;7370611;32;20183;-57
2023/08/01 12:36:12;;;;;;;6.40;2.15;;;17.20;99.90;;;;;;7361610;32;20229;-58
2023/08/01 12:40:14;;;;;;;5.87;2.15;;;17.40;99.90;;;;;;7361731;32;20122;-57
2023/08/01 12:44:17;;;;;;;6.43;1.73;;;17.70;99.90;;;;;;7359545;32;20252;-57
2023/08/01 12:48:19;;;;;;;5.10;1.60;;;18.30;99.90;;;;;;7367609;32;20114;-56
2023/08/01 12:52:24;;;;;;;4.40;1.42;;;19.00;99.90;;;;;;7365696;32;20142;-57
2023/08/01 12:56:26;;;;;;;5.60;1.55;;;19.40;99.90;;;;;;7373039;32;20274;-57
2023/08/01 13:00:30;;;;;;;4.30;1.45;;;20.00;99.90;;;;;;7365642;32;20902;-57
2023/08/01 13:04:31;;;;;;;5.18;1.58;;;20.50;99.90;;;;;;7365852;32;20509;-53
2023/08/01 13:08:33;;;;;;;6.68;1.77;;;20.80;99.90;;;;;;7370623;32;20103;-54
2023/08/01 13:12:35;;;;;;;5.60;1.95;;;21.30;99.90;;;;;;7363414;32;20205;-55
2023/08/01 13:16:36;;;;;;;4.47;1.90;;;21.30;99.90;;;;;;7362640;32;20107;-55
2023/08/01 13:20:38;;;;;;;5.75;1.87;;;21.10;99.90;;;;;;7368401;32;20111;-54
2023/08/01 13:24:40;;;;;;;4.05;1.58;;;21.30;99.90;;;;;;7364031;32;20772;-56
2023/08/01 13:28:42;;;;;;;6.87;1.60;;;21.40;99.90;;;;;;7360525;32;20126;-54
2023/08/01 13:32:45;;;;;;;5.30;1.60;;;21.40;99.90;;;;;;7361552;32;20290;-54
2023/08/01 13:36:47;;;;;;;6.60;2.03;;;21.30;99.90;;;;;;7362994;32;20111;-54
2023/08/01 13:40:48;;;;;;;8.77;2.00;;;21.30;99.90;;;;;;7370211;32;20237;-54
2023/08/01 13:44:50;;;;;;;6.15;1.65;;;20.80;99.90;;;;;;7366568;32;20186;-54
2023/08/01 13:48:52;;;;;;;6.25;1.80;;;20.90;99.90;;;;;;7370238;32;20559;-55
2023/08/01 13:52:53;;;;;;;5.07;1.45;;;20.60;99.90;;;;;;7366762;32;20165;-55
2023/08/01 13:56:55;;;;;;;7.12;1.25;;;20.80;99.90;;;;;;7373680;32;20255;-55
2023/08/01 14:01:02;;;;;;;4.85;1.30;;;20.90;99.90;;;;;;7364344;32;20126;-55
2023/08/01 14:05:04;;;;;;;4.60;1.33;;;21.30;99.90;;;;;;7370175;32;20110;-54
2023/08/01 14:09:06;;;;;;;4.55;1.60;;;21.60;99.90;;;;;;7372129;32;20261;-56
2023/08/01 14:13:08;;;;;;;5.28;1.20;;;21.70;99.90;;;;;;7368299;32;20102;-54
2023/08/01 14:17:10;;;;;;;4.18;1.25;;;21.50;99.90;;;;;;7367038;32;20115;-57
2023/08/01 14:21:12;;;;;;;8.18;1.52;;;21.90;99.90;;;;;;7364884;32;20139;-57
2023/08/01 14:25:13;;;;;;;6.93;1.77;;;22.00;99.90;;;;;;7368193;32;20472;-57
2023/08/01 14:29:15;;;;;;;5.05;1.27;;;21.40;99.90;;;;;;7369181;32;20117;-57
2023/08/01 14:33:17;;;;;;;6.70;1.58;;;20.90;99.90;;;;;;7366580;32;20126;-57
2023/08/01 14:37:19;;;;;;;5.25;1.50;;;21.10;99.90;;;;;;7366665;32;20114;-57
2023/08/01 14:41:21;;;;;;;6.70;1.52;;;21.00;99.90;;;;;;7371865;32;20555;-57
2023/08/01 14:45:42;;;;;;;6.30;1.52;;;20.80;99.90;;;;;;7371545;32;20185;-57
2023/08/01 14:49:44;;;;;;;4.97;1.42;;;20.90;99.90;;;;;;7369395;32;20125;-57
2023/08/01 14:53:46;;;;;;;4.62;1.33;;;21.10;99.90;;;;;;7360758;32;20158;-56
2023/08/01 14:57:48;;;;;;;2.95;1.17;;;21.20;99.90;;;;;;7361836;32;20149;-57
2023/08/01 15:01:50;;;;;;;4.05;1.40;;;21.20;99.90;;;;;;7370864;32;20128;-57
2023/08/01 15:05:52;;;;;;;5.07;1.55;;;21.20;99.90;;;;;;7366471;32;20106;-56
2023/08/01 15:09:55;;;;;;;5.85;1.70;;;21.70;99.90;;;;;;7366636;32;20643;-57
2023/08/01 15:13:57;;;;;;;4.32;1.48;;;21.90;99.90;;;;;;7369048;32;20125;-57
2023/08/01 15:17:59;;;;;;;3.70;1.52;;;22.30;99.90;;;;;;7365495;32;20211;-57
2023/08/01 15:22:01;;;;;;;5.03;1.85;;;22.20;99.90;;;;;;7372689;32;20251;-57
2023/08/01 15:26:03;;;;;;;5.22;1.70;;;21.80;99.90;;;;;;7368454;32;20174;-57
2023/08/01 15:30:06;;;;;;;4.55;1.40;;;22.00;99.90;;;;;;7369931;32;20307;-57
2023/08/01 15:34:08;;;;;;;4.30;1.60;;;21.70;99.90;;;;;;7374071;32;20290;-57
2023/08/01 15:38:10;;;;;;;5.05;1.40;;;21.10;99.90;;;;;;7367247;32;20658;-57
2023/08/01 15:42:12;;;;;;;5.22;1.37;;;20.80;99.90;;;;;;7365686;32;20130;-57
2023/08/01 15:46:14;;;;;;;3.17;1.12;;;20.70;99.90;;;;;;7368884;32;20094;-56
2023/08/01 15:50:16;;;;;;;4.80;1.55;;;20.50;99.90;;;;;;7367366;32;20315;-56
2023/08/01 15:54:17;;;;;;;5.10;1.45;;;20.20;99.90;;;;;;7368005;32;20614;-56
2023/08/01 15:58:19;;;;;;;5.82;1.50;;;20.10;99.90;;;;;;7366509;32;20114;-56
2023/08/01 16:02:21;;;;;;;3.17;1.30;;;20.00;99.90;;;;;;7370082;32;20123;-56
2023/08/01 16:06:23;;;;;;;2.83;1.00;;;20.10;99.90;;;;;;7358835;32;20453;-56
2023/08/01 16:10:24;;;;;;;3.15;0.90;;;20.00;99.90;;;;;;7355500;32;20544;-57
2023/08/01 16:14:26;;;;;;;5.12;1.20;;;19.90;99.90;;;;;;7362746;32;20179;-56
2023/08/01 16:18:31;;;;;;;5.43;1.33;;;20.10;99.90;;;;;;7360259;32;22043;-57
2023/08/01 16:22:33;;;;;;;4.32;1.23;;;20.30;99.90;;;;;;7364279;32;20299;-57
2023/08/01 16:26:34;;;;;;;6.40;1.37;;;20.40;99.90;;;;;;7369403;32;20110;-57
2023/08/01 16:30:37;;;;;;;5.68;1.10;;;20.30;99.90;;;;;;7364913;32;20186;-56
2023/08/01 16:34:38;;;;;;;2.85;0.90;;;20.20;99.90;;;;;;7369362;32;20099;-56
2023/08/01 16:38:40;;;;;;;3.42;1.10;;;20.30;99.90;;;;;;7361590;32;20107;-57
2023/08/01 16:42:43;;;;;;;5.10;1.20;;;20.40;99.90;;;;;;7362817;32;20581;-57
2023/08/01 16:46:45;;;;;;;4.25;1.10;;;20.30;99.90;;;;;;7368348;32;20106;-57
2023/08/01 16:50:47;;;;;;;2.97;1.20;;;20.30;99.90;;;;;;7358025;32;20345;-57
2023/08/01 16:54:49;;;;;;;7.25;1.30;;;20.30;99.90;;;;;;7364033;32;20564;-57
2023/08/01 16:58:52;;;;;;;2.70;0.95;;;20.20;99.90;;;;;;7370574;32;20178;-57
2023/08/01 17:02:57;;;;;;;6.30;1.52;;;20.20;99.90;;;;;;7372332;32;20181;-57
2023/08/01 17:07:02;;;;;;;5.28;1.87;;;20.00;99.90;;;;;;7366923;32;20114;-57
2023/08/01 17:11:05;;;;;;;4.45;1.23;;;19.90;99.90;;;;;;7376724;32;20130;-56
2023/08/01 17:15:07;;;;;;;3.70;1.40;;;19.80;99.90;;;;;;7365706;32;20138;-57
2023/08/01 17:19:11;;;;;;;7.47;1.87;;;19.70;99.90;;;;;;7372581;32;20222;-55
2023/08/01 17:23:13;;;;;;;7.28;1.60;;;19.50;99.90;;;;;;7374836;32;20155;-54
2023/08/01 17:27:15;;;;;;;5.95;1.55;;;19.60;99.90;;;;;;7368676;32;20182;-56
2023/08/01 17:31:17;;;;;;;8.10;1.60;;;19.50;99.90;;;;;;7368664;32;20115;-55
2023/08/01 17:35:19;;;;;;;3.53;1.30;;;19.50;99.90;;;;;;7372405;32;20111;-55
2023/08/01 17:39:21;;;;;;;5.45;1.33;;;19.50;99.90;;;;;;7367069;32;20349;-55
2023/08/01 17:43:23;;;;;;;5.90;1.50;;;19.40;99.90;;;;;;7368846;32;20731;-55
2023/08/01 17:47:27;;;;;;;6.07;1.48;;;19.30;99.90;;;;;;7371786;32;20107;-55
2023/08/01 17:51:30;;;;;;;4.28;1.00;;;19.30;99.90;;;;;;7368712;32;20195;-55
2023/08/01 17:55:31;;;;;;;4.12;1.25;;;19.30;99.90;;;;;;7371128;32;20558;-55
2023/08/01 17:59:35;;;;;;;5.12;1.40;;;19.40;99.90;;;;;;7369908;32;20107;-55
2023/08/01 18:03:37;;;;;;;4.75;1.30;;;19.50;99.90;;;;;;7364493;32;20573;-55
2023/08/01 18:07:39;;;;;;;8.25;1.40;;;19.40;99.90;;;;;;7370260;32;20485;-55
2023/08/01 18:11:41;;;;;;;7.07;1.62;;;19.50;99.90;;;;;;7367741;32;20619;-56
2023/08/01 18:15:43;;;;;;;8.63;1.50;;;19.40;99.90;;;;;;7377063;32;20106;-56
2023/08/01 18:19:44;;;;;;;4.03;1.10;;;19.30;99.90;;;;;;7370673;32;20095;-56
2023/08/01 18:23:47;;;;;;;6.05;1.52;;;19.20;99.90;;;;;;7363898;32;20677;-56
2023/08/01 18:27:49;;;;;;;4.85;1.30;;;19.00;99.90;;;;;;7367809;32;20125;-56
2023/08/01 18:31:51;;;;;;;6.05;1.65;;;18.90;99.90;;;;;;7372840;32;20147;-56
2023/08/01 18:35:52;;;;;;;5.35;1.58;;;18.70;99.90;;;;;;7363564;32;20578;-56
2023/08/01 18:39:55;;;;;;;4.53;1.10;;;18.60;99.90;;;;;;7364852;32;20327;-56
2023/08/01 18:43:56;;;;;;;5.05;1.30;;;18.50;99.90;;;;;;7355047;32;20877;-56
2023/08/01 18:47:58;;;;;;;4.82;1.40;;;18.40;99.90;;;;;;7370795;32;20107;-54
2023/08/01 18:52:00;;;;;;;6.57;1.45;;;18.30;99.90;;;;;;7369254;32;20160;-55
2023/08/01 18:56:06;;;;;;;5.15;1.40;;;18.30;99.90;;;;;;7365003;32;20227;-55
2023/08/01 19:00:13;;;;;;;3.17;1.23;;;18.30;99.90;;;;;;7368801;32;20681;-54
2023/08/01 19:04:14;;;;;;;3.12;1.10;;;18.20;99.90;;;;;;7366593;32;20092;-55
2023/08/01 19:08:17;;;;;;;4.47;1.40;;;18.20;99.90;;;;;;7372201;32;20201;-55
2023/08/01 19:12:18;;;;;;;7.78;2.00;;;18.20;99.90;;;;;;7364150;32;20220;-55
2023/08/01 19:16:20;;;;;;;4.32;1.35;;;18.20;99.90;;;;;;7358627;32;20536;-55
2023/08/01 19:20:22;;;;;;;4.97;1.15;;;18.20;99.90;;;;;;7364193;32;20111;-57
2023/08/01 19:24:24;;;;;;;6.95;1.50;;;18.10;99.90;;;;;;7369702;32;20090;-58
2023/08/01 19:28:25;;;;;;;5.72;1.60;;;18.00;99.90;;;;;;7364584;32;20570;-57
2023/08/01 19:32:28;;;;;;;4.70;1.37;;;18.00;99.90;;;;;;7368037;32;20305;-56
2023/08/01 19:36:30;;;;;;;7.78;1.75;;;18.00;99.90;;;;;;7364829;32;20174;-56
2023/08/01 19:40:31;;;;;;;6.57;1.30;;;17.90;99.90;;;;;;7365272;32;20141;-55
2023/08/01 19:44:34;;;;;;;6.30;1.70;;;17.90;99.90;;;;;;7364539;32;20224;-56
2023/08/01 19:48:36;;;;;;;7.80;1.92;;;17.80;99.90;;;;;;7362656;32;20234;-56
2023/08/01 19:52:39;;;;;;;3.90;1.50;;;17.70;99.90;;;;;;7367802;32;23386;-56
2023/08/01 19:56:41;;;;;;;6.28;1.77;;;17.80;99.90;;;;;;7363318;32;20215;-56
2023/08/01 20:00:44;;;;;;;4.40;1.55;;;17.70;99.90;;;;;;7361830;32;20544;-56
2023/08/01 20:04:46;;;;;;;4.07;1.37;;;17.80;99.90;;;;;;7361871;32;21100;-56
2023/08/01 20:08:48;;;;;;;5.78;1.58;;;17.70;99.90;;;;;;7365650;32;20913;-56
2023/08/01 20:12:50;;;;;;;8.80;1.62;;;17.70;99.90;;;;;;7361696;32;20516;-55
2023/08/01 20:16:52;;;;;;;5.68;1.55;;;17.60;99.90;;;;;;7366404;32;20478;-55
2023/08/01 20:20:54;;;;;;;3.72;1.42;;;17.50;99.90;;;;;;7356674;32;20206;-56
2023/08/01 20:24:56;;;;;;;5.90;1.27;;;17.50;99.90;;;;;;7349155;32;20571;-56
2023/08/01 20:28:58;;;;;;;5.75;1.45;;;17.30;99.90;;;;;;7342090;32;20257;-55
2023/08/01 20:33:00;;;;;;;7.25;1.62;;;17.20;99.90;;;;;;7337211;32;20709;-55
2023/08/01 20:37:03;;;;;;;5.32;1.77;;;17.20;99.90;;;;;;7340079;32;21218;-55
2023/08/01 20:41:15;;;;;;;5.43;1.73;;;17.20;99.90;;;;;;7338419;32;21345;-55
2023/08/01 20:45:18;;;;;;;7.45;1.83;;;17.10;99.90;;;;;;7348012;32;20099;-56
2023/08/01 20:49:20;;;;;;;5.72;1.77;;;17.00;99.90;;;;;;7348675;32;20730;-56
2023/08/01 20:53:21;;;;;;;7.45;1.80;;;17.00;99.90;;;;;;7362911;32;20202;-56
2023/08/01 20:57:23;;;;;;;6.82;1.90;;;17.00;99.90;;;;;;7358420;32;20273;-55